Sombrero Key, FL current weather conditions

sailwx.info

Wind from 170 at 6 knots gusting 7

Air temperature 28.5° C
Dewpoint 23.4° C

Last reported at 2020-Aug-06 06:30 UTC.
Time now 2020-Aug-06 07:12 UTC

Location: N 24°38' W 081°07'.
View on Google Maps.

See reports from other nearby stations

  
Tides and Currents Weather Stations Pressure Air Temp Water Temp Dewpoint Dewpoint Depression Visibility Wind Speed Wind Dir Waves Ship Positions
date/time (UTC)wind fromknots sea level pressurealtimeterstation pressurevisibilityair tempwater tempwave heightnotes
2020-Aug-06 06:30 170 6 gusting 7 28.5
2020-Aug-06 06:20 180 6 gusting 7 28.4
2020-Aug-06 06:10 170 7 gusting 11 28.4
2020-Aug-06 06:00 160 8 gusting 11 28.4
2020-Aug-06 05:50 160 8 gusting 9 28.4
2020-Aug-06 05:40 160 6 gusting 8 28.4
2020-Aug-06 05:30 150 6 gusting 7 28.5
2020-Aug-06 05:20 140 6 gusting 7 28.6
2020-Aug-06 04:50 150 5 gusting 7 28.5
2020-Aug-06 04:40 150 6 gusting 7 28.6
2020-Aug-06 04:30 150 6 gusting 8 28.5
2020-Aug-06 04:20 150 6 gusting 8 28.5
2020-Aug-06 03:50 150 8 gusting 12 28.4
2020-Aug-06 03:40 140 8 gusting 12 28.4
2020-Aug-06 03:30 140 8 gusting 13 28.4
2020-Aug-06 03:20 150 11 gusting 13 28.4
2020-Aug-06 03:10 150 12 gusting 13 28.3
2020-Aug-06 02:50 160 8 gusting 11 28.4
2020-Aug-06 02:40 140 9 gusting 12 28.5
2020-Aug-06 02:30 130 11 gusting 13 28.9
2020-Aug-06 02:20 110 8 gusting 11 28.8
2020-Aug-06 02:10 100 6 gusting 9 28.8
2020-Aug-06 01:40 090 6 gusting 7 28.9
2020-Aug-06 01:30 080 6 gusting 8 28.9
2020-Aug-06 01:20 070 6 gusting 7 28.9
2020-Aug-06 01:10 060 6 gusting 6 28.8
2020-Aug-06 00:50 060 5 gusting 6 28.8
2020-Aug-06 00:40 060 4 gusting 5 28.7
2020-Aug-06 00:30 060 5 gusting 5 28.6
2020-Aug-06 00:20 040 4 gusting 6 28.4
2020-Aug-05 23:50 210 4 gusting 6 28.3
2020-Aug-05 23:40 210 6 gusting 11 28.0
2020-Aug-05 23:30 200 13 gusting 19 27.7
2020-Aug-05 23:20 190 17 gusting 20 27.8
2020-Aug-05 22:50 170 9 gusting 13 29.6
2020-Aug-05 22:40 160 6 gusting 9 29.7
2020-Aug-05 22:30 160 6 gusting 6 29.7
2020-Aug-05 22:20 160 5 gusting 6 29.8
2020-Aug-05 22:10 160 5 gusting 6 29.7
2020-Aug-05 21:50 180 6 gusting 7 29.7
2020-Aug-05 21:40 180 6 gusting 7 29.7
2020-Aug-05 21:30 170 5 gusting 6 29.7
2020-Aug-05 21:10 160 4 gusting 6 29.6
2020-Aug-05 20:50 140 1 gusting 4 29.5
2020-Aug-05 20:40 130 1 gusting 4 29.4
2020-Aug-05 20:30 100 0 gusting 2 29.4
2020-Aug-05 20:20 110 0 gusting 2 29.5
2020-Aug-05 20:10 30.1
2020-Aug-05 19:50 29.6
2020-Aug-05 19:40 210 1 gusting 2 29.4
2020-Aug-05 19:30 170 2 gusting 5 29.3
2020-Aug-05 19:20 180 2 gusting 5 29.3
2020-Aug-05 19:00 180 4 gusting 5 29.3
2020-Aug-05 18:50 170 2 gusting 5 29.2
2020-Aug-05 18:40 160 2 gusting 4 29.2
2020-Aug-05 18:30 160 1 gusting 4 29.2
2020-Aug-05 18:20 210 4 gusting 5 29.3
2020-Aug-05 18:00 190 5 gusting 6 29.3
2020-Aug-05 17:50 200 5 gusting 6 29.3
2020-Aug-05 17:40 190 4 gusting 6 29.3
2020-Aug-05 17:30 150 0 gusting 2 29.3
2020-Aug-05 17:20 150 1 gusting 4 29.3
2020-Aug-05 16:50 150 2 gusting 6 29.2
2020-Aug-05 16:40 150 4 gusting 6 29.3
2020-Aug-05 16:30 150 4 gusting 5 29.3
2020-Aug-05 16:20 170 4 gusting 7 29.2
2020-Aug-05 15:50 180 6 gusting 7 29.3
2020-Aug-05 15:40 180 6 gusting 7 29.3
2020-Aug-05 15:30 180 6 gusting 8 29.2
2020-Aug-05 15:10 170 7 gusting 9 29.3
2020-Aug-05 14:50 170 8 gusting 11 29.3
2020-Aug-05 14:40 160 8 gusting 11 29.2
2020-Aug-05 14:30 160 8 gusting 11 29.2
2020-Aug-05 14:20 160 8 gusting 11 29.2
2020-Aug-05 14:10 160 8 gusting 11 29.2
2020-Aug-05 13:50 160 9 gusting 11 29.3
2020-Aug-05 13:40 160 9 gusting 11 29.2
2020-Aug-05 13:30 150 9 gusting 12 29.3
2020-Aug-05 13:20 150 9 gusting 13 29.2
2020-Aug-05 13:00 160 6 gusting 8 29.1
2020-Aug-05 12:50 160 6 gusting 7 29.1
2020-Aug-05 12:40 150 6 gusting 7 29.0
2020-Aug-05 12:30 160 6 gusting 8 28.9
2020-Aug-05 12:20 160 7 gusting 11 28.8
2020-Aug-05 11:50 160 9 gusting 13 28.9
2020-Aug-05 11:40 180 8 gusting 11 28.9
2020-Aug-05 11:30 170 9 gusting 12 29.0
2020-Aug-05 11:20 170 9 gusting 12 29.1
2020-Aug-05 11:00 160 9 gusting 13 29.1
2020-Aug-05 10:50 150 9 gusting 13 29.1
2020-Aug-05 10:40 150 8 gusting 12 29.1
2020-Aug-05 10:30 150 8 gusting 11 29.1
2020-Aug-05 10:20 150 8 gusting 11 29.1
2020-Aug-05 10:10 150 8 gusting 11 29.0
2020-Aug-05 09:50 140 8 gusting 11 28.9
2020-Aug-05 09:40 150 7 gusting 9 28.8
2020-Aug-05 09:30 150 7 gusting 11 28.9
2020-Aug-05 09:20 150 7 gusting 11 28.9
2020-Aug-05 08:50 190 11 gusting 13 28.8
2020-Aug-05 08:40 180 12 gusting 15 28.7
2020-Aug-05 08:30 180 14 gusting 18 28.9
2020-Aug-05 08:20 150 13 gusting 17 29.3
2020-Aug-05 07:50 160 13 gusting 14 29.4
2020-Aug-05 07:40 150 12 gusting 15 29.3
2020-Aug-05 07:30 150 13 gusting 14 29.3
2020-Aug-05 07:20 150 12 gusting 13 29.3
2020-Aug-05 07:00 140 12 gusting 13 29.3
2020-Aug-05 06:50 140 12 gusting 13 29.3
2020-Aug-05 06:40 140 12 gusting 14 29.3
2020-Aug-05 06:30 140 12 gusting 13 29.4
2020-Aug-05 06:00 130 11 gusting 13 29.4
2020-Aug-05 05:50 130 11 gusting 13 29.3
2020-Aug-05 05:40 120 11 gusting 13 29.3
2020-Aug-05 05:30 120 9 gusting 12 29.3
2020-Aug-05 05:20 120 9 gusting 12 29.3
2020-Aug-05 04:50 130 8 gusting 11 29.4
2020-Aug-05 04:40 120 7 gusting 9 29.3
2020-Aug-05 04:30 120 7 gusting 9 29.4
2020-Aug-05 04:20 110 7 gusting 9 29.4
2020-Aug-05 04:10 100 7 gusting 9 29.4
2020-Aug-05 03:50 110 7 gusting 9 29.5
2020-Aug-05 03:40 100 7 gusting 9 29.4
2020-Aug-05 03:30 100 7 gusting 9 29.4
2020-Aug-05 03:20 110 6 gusting 8 29.4
2020-Aug-05 02:50 130 6 gusting 8 29.5
2020-Aug-05 02:40 130 6 gusting 8 29.5
2020-Aug-05 02:30 130 6 gusting 8 29.6
2020-Aug-05 02:20 130 7 gusting 9 29.6
2020-Aug-05 02:10 130 8 gusting 9 29.6
2020-Aug-05 01:50 130 9 gusting 12 29.7
2020-Aug-05 01:40 130 11 gusting 13 29.7
2020-Aug-05 01:30 140 11 gusting 13 29.7
2020-Aug-05 01:20 120 11 gusting 13 29.7
2020-Aug-05 00:40 130 11 gusting 12 29.7
2020-Aug-05 00:30 120 9 gusting 13 29.7
2020-Aug-05 00:20 130 9 gusting 12 29.7
2020-Aug-05 00:00 120 9 gusting 12 29.7
2020-Aug-04 23:50 120 9 gusting 11 29.7
2020-Aug-04 23:40 120 8 gusting 11 29.8
2020-Aug-04 23:30 120 6 gusting 8 29.8
2020-Aug-04 23:20 110 6 gusting 8 29.8
2020-Aug-04 22:50 120 5 gusting 6 29.9
2020-Aug-04 22:40 120 4 gusting 6 29.8
2020-Aug-04 22:30 120 4 gusting 5 29.8
2020-Aug-04 22:20 120 2 gusting 4 29.9
2020-Aug-04 22:10 150 1 gusting 2 30.0
2020-Aug-04 21:50 220 0 gusting 1 30.1
2020-Aug-04 21:40 160 0 gusting 2 29.8
2020-Aug-04 21:30 170 1 gusting 2 29.8
2020-Aug-04 21:10 160 2 gusting 4 29.8
2020-Aug-04 20:50 180 2 gusting 4 29.8
2020-Aug-04 20:40 180 2 gusting 5 29.8
2020-Aug-04 20:30 200 2 gusting 4 29.9
2020-Aug-04 20:20 210 2 gusting 5 29.8
2020-Aug-04 20:10 180 2 gusting 5 29.7
2020-Aug-04 19:50 170 4 gusting 5 29.7
2020-Aug-04 19:40 190 5 gusting 6 29.7
2020-Aug-04 19:30 190 5 gusting 6 29.6
2020-Aug-04 19:20 180 5 gusting 6 29.7
2020-Aug-04 18:50 170 6 gusting 6 29.6
2020-Aug-04 18:40 180 6 gusting 6 29.6
2020-Aug-04 18:30 180 6 gusting 7 29.6
2020-Aug-04 18:20 170 6 gusting 8 29.6
2020-Aug-04 18:00 180 7 gusting 9 29.5
2020-Aug-04 17:50 180 8 gusting 9 29.5
2020-Aug-04 17:40 170 7 gusting 9 29.5
2020-Aug-04 17:30 190 6 gusting 7 29.6
2020-Aug-04 17:20 190 5 gusting 6 29.5
2020-Aug-04 16:50 180 5 gusting 6 29.6
2020-Aug-04 16:40 150 2 gusting 5 29.5
2020-Aug-04 16:30 160 2 gusting 6 29.5
2020-Aug-04 16:20 160 4 gusting 6 29.5
2020-Aug-04 15:50 160 5 gusting 6 29.4
2020-Aug-04 15:40 150 4 gusting 6 29.4
2020-Aug-04 15:30 160 5 gusting 6 29.4
2020-Aug-04 15:20 150 5 gusting 6 29.4
2020-Aug-04 14:50 180 6 gusting 7 29.4
2020-Aug-04 14:40 180 6 gusting 8 29.4
2020-Aug-04 14:30 190 6 gusting 8 29.4
2020-Aug-04 14:20 180 7 gusting 9 29.3
2020-Aug-04 14:10 190 7 gusting 8 29.3
2020-Aug-04 13:50 200 8 gusting 11 29.3
2020-Aug-04 13:40 190 9 gusting 12 29.4
2020-Aug-04 13:30 180 9 gusting 12 29.3
2020-Aug-04 13:20 180 9 gusting 12 29.3
2020-Aug-04 13:00 170 9 gusting 12 29.4
2020-Aug-04 12:50 180 9 gusting 11 29.4
2020-Aug-04 12:40 180 11 gusting 13 29.3
2020-Aug-04 12:30 180 11 gusting 13 29.3
2020-Aug-04 12:20 180 11 gusting 13 29.3
2020-Aug-04 12:00 180 11 gusting 13 29.3
2020-Aug-04 11:50 180 9 gusting 13 29.1
2020-Aug-04 11:40 200 7 gusting 9 29.0
2020-Aug-04 11:30 190 7 gusting 11 28.9
2020-Aug-04 11:20 200 8 gusting 11 28.9
2020-Aug-04 10:50 180 11 gusting 13 29.0
2020-Aug-04 10:40 190 9 gusting 13 29.0
2020-Aug-04 10:30 200 9 gusting 12 29.0
2020-Aug-04 10:20 160 6 gusting 8 29.2
2020-Aug-04 09:50 170 9 gusting 12 29.2
2020-Aug-04 09:40 140 7 gusting 8 29.2
2020-Aug-04 09:30 140 6 gusting 8 29.2
2020-Aug-04 09:20 150 7 gusting 9 29.2
2020-Aug-04 08:50 170 8 gusting 12 29.1
2020-Aug-04 08:40 140 6 gusting 7 29.2
2020-Aug-04 08:30 150 6 gusting 8 29.3
2020-Aug-04 08:20 150 6 gusting 7 29.2
2020-Aug-04 07:50 160 9 gusting 12 29.2
2020-Aug-04 07:40 130 7 gusting 9 29.2
2020-Aug-04 07:30 130 8 gusting 9 29.2
2020-Aug-04 07:20 140 8 gusting 9 29.3
2020-Aug-04 07:10 140 7 gusting 9 29.3